sensor_id;sensor_type;location;lat;lon;timestamp;pressure;altitude;pressure_sealevel;temperature;humidity
9335;BME280;4706;41.844;26.082;2023-04-22T00:00:13;100537.97;;;16.29;87.58
9335;BME280;4706;41.844;26.082;2023-04-22T00:02:39;100538.41;;;16.31;86.76
9335;BME280;4706;41.844;26.082;2023-04-22T00:05:05;100533.91;;;16.26;86.97
9335;BME280;4706;41.844;26.082;2023-04-22T00:07:31;100528.47;;;16.09;88.89
9335;BME280;4706;41.844;26.082;2023-04-22T00:09:57;100538.91;;;16.12;88.93
9335;BME280;4706;41.844;26.082;2023-04-22T00:12:23;100532.53;;;16.11;88.72
9335;BME280;4706;41.844;26.082;2023-04-22T00:14:48;100532.63;;;16.02;88.05
9335;BME280;4706;41.844;26.082;2023-04-22T00:17:13;100537.56;;;15.97;87.55
9335;BME280;4706;41.844;26.082;2023-04-22T00:19:40;100538.81;;;15.78;88.71
9335;BME280;4706;41.844;26.082;2023-04-22T00:22:06;100544.06;;;15.80;89.18
9335;BME280;4706;41.844;26.082;2023-04-22T00:24:31;100549.66;;;15.92;88.12
9335;BME280;4706;41.844;26.082;2023-04-22T00:26:57;100552.16;;;15.85;88.94
9335;BME280;4706;41.844;26.082;2023-04-22T00:29:24;100542.75;;;15.77;88.53
9335;BME280;4706;41.844;26.082;2023-04-22T00:31:50;100550.53;;;15.84;88.34
9335;BME280;4706;41.844;26.082;2023-04-22T00:34:15;100545.97;;;15.79;88.46
9335;BME280;4706;41.844;26.082;2023-04-22T00:36:42;100547.50;;;15.77;88.38
9335;BME280;4706;41.844;26.082;2023-04-22T00:39:08;100551.22;;;15.81;88.06
9335;BME280;4706;41.844;26.082;2023-04-22T00:41:34;100561.53;;;15.72;88.01
9335;BME280;4706;41.844;26.082;2023-04-22T00:43:59;100556.13;;;15.75;87.67
9335;BME280;4706;41.844;26.082;2023-04-22T00:46:26;100551.81;;;15.66;87.39
9335;BME280;4706;41.844;26.082;2023-04-22T00:48:51;100560.13;;;15.87;87.05
9335;BME280;4706;41.844;26.082;2023-04-22T00:51:17;100548.72;;;15.88;86.51
9335;BME280;4706;41.844;26.082;2023-04-22T00:53:42;100545.59;;;15.90;87.26
9335;BME280;4706;41.844;26.082;2023-04-22T00:56:08;100544.03;;;16.01;85.58
9335;BME280;4706;41.844;26.082;2023-04-22T00:58:35;100546.97;;;16.05;85.94
9335;BME280;4706;41.844;26.082;2023-04-22T01:01:01;100531.19;;;15.96;85.86
9335;BME280;4706;41.844;26.082;2023-04-22T01:03:27;100539.59;;;15.88;86.75
9335;BME280;4706;41.844;26.082;2023-04-22T01:05:54;100549.38;;;15.85;87.20
9335;BME280;4706;41.844;26.082;2023-04-22T01:08:20;100531.31;;;15.79;86.92
9335;BME280;4706;41.844;26.082;2023-04-22T01:10:45;100543.03;;;15.85;86.87
9335;BME280;4706;41.844;26.082;2023-04-22T01:13:11;100542.09;;;15.81;86.57
9335;BME280;4706;41.844;26.082;2023-04-22T01:15:36;100531.31;;;15.79;86.55
9335;BME280;4706;41.844;26.082;2023-04-22T01:18:03;100544.06;;;15.80;87.26
9335;BME280;4706;41.844;26.082;2023-04-22T01:20:28;100538.22;;;15.73;88.21
9335;BME280;4706;41.844;26.082;2023-04-22T01:22:55;100529.97;;;15.55;89.55
9335;BME280;4706;41.844;26.082;2023-04-22T01:25:24;100531.28;;;15.58;89.71
9335;BME280;4706;41.844;26.082;2023-04-22T01:27:50;100530.75;;;15.65;89.74
9335;BME280;4706;41.844;26.082;2023-04-22T01:30:16;100537.59;;;15.67;90.17
9335;BME280;4706;41.844;26.082;2023-04-22T01:32:42;100536.56;;;15.72;89.14
9335;BME280;4706;41.844;26.082;2023-04-22T01:35:08;100523.72;;;15.67;88.91
9335;BME280;4706;41.844;26.082;2023-04-22T01:37:34;100534.16;;;15.70;89.14
9335;BME280;4706;41.844;26.082;2023-04-22T01:40:01;100542.22;;;15.54;88.57
9335;BME280;4706;41.844;26.082;2023-04-22T01:42:26;100541.78;;;15.44;89.61
9335;BME280;4706;41.844;26.082;2023-04-22T01:44:52;100535.06;;;15.53;89.67
9335;BME280;4706;41.844;26.082;2023-04-22T01:47:17;100540.63;;;15.45;90.39
9335;BME280;4706;41.844;26.082;2023-04-22T01:49:43;100549.34;;;15.26;91.64
9335;BME280;4706;41.844;26.082;2023-04-22T01:52:08;100548.09;;;15.15;92.73
9335;BME280;4706;41.844;26.082;2023-04-22T01:54:34;100540.34;;;14.99;92.81
9335;BME280;4706;41.844;26.082;2023-04-22T01:57:07;100544.75;;;14.92;93.62
9335;BME280;4706;41.844;26.082;2023-04-22T01:59:32;100541.06;;;14.79;94.97
9335;BME280;4706;41.844;26.082;2023-04-22T02:01:58;100539.88;;;14.89;94.13
9335;BME280;4706;41.844;26.082;2023-04-22T02:04:23;100538.59;;;14.86;94.97
9335;BME280;4706;41.844;26.082;2023-04-22T02:06:49;100536.16;;;14.85;96.24
9335;BME280;4706;41.844;26.082;2023-04-22T02:09:14;100535.66;;;14.91;96.47
9335;BME280;4706;41.844;26.082;2023-04-22T02:11:40;100533.50;;;14.97;95.56
9335;BME280;4706;41.844;26.082;2023-04-22T02:14:05;100513.25;;;15.14;93.32
9335;BME280;4706;41.844;26.082;2023-04-22T02:16:31;100524.81;;;15.16;92.76
9335;BME280;4706;41.844;26.082;2023-04-22T02:18:56;100519.13;;;15.12;93.24
9335;BME280;4706;41.844;26.082;2023-04-22T02:21:22;100527.28;;;15.09;93.37
9335;BME280;4706;41.844;26.082;2023-04-22T02:23:47;100519.78;;;15.00;94.70
9335;BME280;4706;41.844;26.082;2023-04-22T02:26:13;100519.66;;;14.97;94.50
9335;BME280;4706;41.844;26.082;2023-04-22T02:28:38;100516.38;;;15.03;94.23
9335;BME280;4706;41.844;26.082;2023-04-22T02:31:05;100517.22;;;14.95;94.67
9335;BME280;4706;41.844;26.082;2023-04-22T02:33:31;100522.47;;;14.88;94.51
9335;BME280;4706;41.844;26.082;2023-04-22T02:35:56;100528.06;;;14.71;96.47
9335;BME280;4706;41.844;26.082;2023-04-22T02:38:22;100526.41;;;14.78;95.98
9335;BME280;4706;41.844;26.082;2023-04-22T02:40:48;100529.28;;;14.91;94.88
9335;BME280;4706;41.844;26.082;2023-04-22T02:43:13;100532.84;;;15.00;94.40
9335;BME280;4706;41.844;26.082;2023-04-22T02:45:39;100532.53;;;14.93;96.28
9335;BME280;4706;41.844;26.082;2023-04-22T02:48:05;100537.91;;;14.89;96.94
9335;BME280;4706;41.844;26.082;2023-04-22T02:50:30;100534.72;;;14.78;97.83
9335;BME280;4706;41.844;26.082;2023-04-22T02:52:56;100526.22;;;14.84;97.57
9335;BME280;4706;41.844;26.082;2023-04-22T02:55:21;100537.81;;;14.77;98.51
9335;BME280;4706;41.844;26.082;2023-04-22T02:57:48;100526.72;;;14.86;98.29
9335;BME280;4706;41.844;26.082;2023-04-22T03:00:14;100535.84;;;14.77;98.35
9335;BME280;4706;41.844;26.082;2023-04-22T03:02:40;100531.44;;;14.76;97.65
9335;BME280;4706;41.844;26.082;2023-04-22T03:05:06;100536.38;;;14.71;99.24
9335;BME280;4706;41.844;26.082;2023-04-22T03:07:31;100535.69;;;14.74;99.90
9335;BME280;4706;41.844;26.082;2023-04-22T03:09:57;100540.25;;;14.70;100.00
9335;BME280;4706;41.844;26.082;2023-04-22T03:12:23;100536.19;;;14.76;99.46
9335;BME280;4706;41.844;26.082;2023-04-22T03:14:49;100538.44;;;14.74;99.12
9335;BME280;4706;41.844;26.082;2023-04-22T03:17:15;100546.06;;;14.94;97.55
9335;BME280;4706;41.844;26.082;2023-04-22T03:19:40;100536.94;;;14.94;98.22
9335;BME280;4706;41.844;26.082;2023-04-22T03:22:06;100537.31;;;14.84;98.52
9335;BME280;4706;41.844;26.082;2023-04-22T03:24:31;100539.25;;;14.83;98.42
9335;BME280;4706;41.844;26.082;2023-04-22T03:26:57;100543.34;;;14.77;99.37
9335;BME280;4706;41.844;26.082;2023-04-22T03:29:22;100547.06;;;14.81;98.16
9335;BME280;4706;41.844;26.082;2023-04-22T03:31:48;100545.09;;;14.81;97.11
9335;BME280;4706;41.844;26.082;2023-04-22T03:34:13;100550.34;;;14.83;97.10
9335;BME280;4706;41.844;26.082;2023-04-22T03:36:40;100551.16;;;14.84;97.16
9335;BME280;4706;41.844;26.082;2023-04-22T03:39:05;100548.56;;;14.70;98.08
9335;BME280;4706;41.844;26.082;2023-04-22T03:41:30;100556.56;;;14.63;98.37
9335;BME280;4706;41.844;26.082;2023-04-22T03:43:56;100566.97;;;14.74;98.26
9335;BME280;4706;41.844;26.082;2023-04-22T03:46:21;100565.03;;;14.57;99.85
9335;BME280;4706;41.844;26.082;2023-04-22T03:48:47;100571.22;;;14.46;99.58
9335;BME280;4706;41.844;26.082;2023-04-22T03:51:12;100567.31;;;14.12;100.00
9335;BME280;4706;41.844;26.082;2023-04-22T03:53:38;100571.06;;;14.07;100.00
9335;BME280;4706;41.844;26.082;2023-04-22T03:56:04;100574.28;;;14.01;100.00
9335;BME280;4706;41.844;26.082;2023-04-22T03:58:29;100578.03;;;14.05;100.00
9335;BME280;4706;41.844;26.082;2023-04-22T04:00:55;100587.47;;;14.13;100.00
9335;BME280;4706;41.844;26.082;2023-04-22T04:03:20;100588.78;;;14.15;100.00
9335;BME280;4706;41.844;26.082;2023-04-22T04:05:46;100590.91;;;14.27;100.00
9335;BME280;4706;41.844;26.082;2023-04-22T04:08:11;100587.31;;;14.35;100.00
9335;BME280;4706;41.844;26.082;2023-04-22T04:10:37;100588.16;;;14.44;100.00
9335;BME280;4706;41.844;26.082;2023-04-22T04:13:03;100594.97;;;14.47;100.00
9335;BME280;4706;41.844;26.082;2023-04-22T04:15:28;100586.34;;;14.48;100.00
9335;BME280;4706;41.844;26.082;2023-04-22T04:17:54;100581.97;;;14.65;100.00
9335;BME280;4706;41.844;26.082;2023-04-22T04:20:21;100597.25;;;14.79;100.00
9335;BME280;4706;41.844;26.082;2023-04-22T04:22:46;100602.13;;;14.82;100.00
9335;BME280;4706;41.844;26.082;2023-04-22T04:25:12;100601.78;;;14.93;99.45
9335;BME280;4706;41.844;26.082;2023-04-22T04:27:37;100602.56;;;15.02;98.94
9335;BME280;4706;41.844;26.082;2023-04-22T04:30:04;100609.44;;;15.04;100.00
9335;BME280;4706;41.844;26.082;2023-04-22T04:32:30;100596.22;;;15.01;100.00
9335;BME280;4706;41.844;26.082;2023-04-22T04:34:58;100613.47;;;15.16;99.55
9335;BME280;4706;41.844;26.082;2023-04-22T04:37:24;100615.41;;;15.24;98.41
9335;BME280;4706;41.844;26.082;2023-04-22T04:39:50;100617.00;;;15.25;97.15
9335;BME280;4706;41.844;26.082;2023-04-22T04:42:16;100622.75;;;15.20;97.30
9335;BME280;4706;41.844;26.082;2023-04-22T04:44:41;100630.22;;;15.19;97.53
9335;BME280;4706;41.844;26.082;2023-04-22T04:47:07;100630.88;;;15.25;97.50
9335;BME280;4706;41.844;26.082;2023-04-22T04:49:32;100634.13;;;15.27;96.82
9335;BME280;4706;41.844;26.082;2023-04-22T04:52:04;100630.22;;;15.28;97.07
9335;BME280;4706;41.844;26.082;2023-04-22T04:54:29;100625.44;;;15.37;95.33
9335;BME280;4706;41.844;26.082;2023-04-22T04:56:55;100634.72;;;15.41;93.86
9335;BME280;4706;41.844;26.082;2023-04-22T04:59:21;100636.34;;;15.42;94.08
9335;BME280;4706;41.844;26.082;2023-04-22T05:01:47;100635.16;;;15.52;94.42
9335;BME280;4706;41.844;26.082;2023-04-22T05:04:13;100632.94;;;15.37;95.26
9335;BME280;4706;41.844;26.082;2023-04-22T05:06:39;100632.16;;;15.27;95.76
9335;BME280;4706;41.844;26.082;2023-04-22T05:09:04;100632.03;;;15.24;95.77
9335;BME280;4706;41.844;26.082;2023-04-22T05:11:32;100628.06;;;15.34;94.96
9335;BME280;4706;41.844;26.082;2023-04-22T05:13:59;100623.66;;;15.33;95.66
9335;BME280;4706;41.844;26.082;2023-04-22T05:16:24;100624.28;;;15.47;95.47
9335;BME280;4706;41.844;26.082;2023-04-22T05:18:50;100622.13;;;15.52;96.34
9335;BME280;4706;41.844;26.082;2023-04-22T05:21:16;100626.69;;;15.57;95.70
9335;BME280;4706;41.844;26.082;2023-04-22T05:23:41;100631.63;;;15.43;96.52
9335;BME280;4706;41.844;26.082;2023-04-22T05:26:07;100635.16;;;15.52;95.96
9335;BME280;4706;41.844;26.082;2023-04-22T05:28:32;100635.81;;;15.49;95.98
9335;BME280;4706;41.844;26.082;2023-04-22T05:30:58;100629.09;;;15.59;95.24
9335;BME280;4706;41.844;26.082;2023-04-22T05:33:23;100645.41;;;15.60;95.19
9335;BME280;4706;41.844;26.082;2023-04-22T05:35:49;100643.09;;;15.71;92.58
9335;BME280;4706;41.844;26.082;2023-04-22T05:38:15;100645.75;;;15.59;93.46
9335;BME280;4706;41.844;26.082;2023-04-22T05:40:41;100643.63;;;15.55;93.95
9335;BME280;4706;41.844;26.082;2023-04-22T05:43:07;100642.16;;;15.58;94.30
9335;BME280;4706;41.844;26.082;2023-04-22T05:45:33;100636.28;;;15.68;94.68
9335;BME280;4706;41.844;26.082;2023-04-22T05:47:58;100639.81;;;15.77;94.34
9335;BME280;4706;41.844;26.082;2023-04-22T05:50:24;100641.06;;;15.89;93.53
9335;BME280;4706;41.844;26.082;2023-04-22T05:52:49;100642.50;;;15.95;92.23
9335;BME280;4706;41.844;26.082;2023-04-22T05:55:15;100642.16;;;15.96;91.21
9335;BME280;4706;41.844;26.082;2023-04-22T05:57:40;100638.50;;;16.05;91.22
9335;BME280;4706;41.844;26.082;2023-04-22T06:00:07;100642.53;;;16.16;91.53
9335;BME280;4706;41.844;26.082;2023-04-22T06:02:33;100643.59;;;16.23;90.62
9335;BME280;4706;41.844;26.082;2023-04-22T06:04:59;100649.84;;;16.41;90.64
9335;BME280;4706;41.844;26.082;2023-04-22T06:07:24;100655.69;;;16.48;88.05
9335;BME280;4706;41.844;26.082;2023-04-22T06:09:50;100652.28;;;16.64;86.30
9335;BME280;4706;41.844;26.082;2023-04-22T06:12:15;100656.31;;;16.75;84.50
9335;BME280;4706;41.844;26.082;2023-04-22T06:14:41;100656.63;;;16.73;86.15
9335;BME280;4706;41.844;26.082;2023-04-22T06:17:06;100644.75;;;16.64;86.61
9335;BME280;4706;41.844;26.082;2023-04-22T06:19:34;100657.50;;;16.86;84.93
9335;BME280;4706;41.844;26.082;2023-04-22T06:21:59;100643.75;;;16.90;85.83
9335;BME280;4706;41.844;26.082;2023-04-22T06:24:25;100657.78;;;16.93;84.66
9335;BME280;4706;41.844;26.082;2023-04-22T06:26:50;100658.59;;;16.94;84.91
9335;BME280;4706;41.844;26.082;2023-04-22T06:29:16;100661.69;;;16.92;84.44
9335;BME280;4706;41.844;26.082;2023-04-22T06:31:41;100655.88;;;16.64;84.38
9335;BME280;4706;41.844;26.082;2023-04-22T06:34:07;100664.47;;;16.71;84.11
9335;BME280;4706;41.844;26.082;2023-04-22T06:36:33;100656.50;;;16.70;85.83
9335;BME280;4706;41.844;26.082;2023-04-22T06:39:03;100661.28;;;16.61;85.05
9335;BME280;4706;41.844;26.082;2023-04-22T06:41:30;100662.06;;;16.70;83.58
9335;BME280;4706;41.844;26.082;2023-04-22T06:43:55;100670.13;;;16.63;84.02
9335;BME280;4706;41.844;26.082;2023-04-22T06:46:21;100664.13;;;16.73;84.76
9335;BME280;4706;41.844;26.082;2023-04-22T06:48:47;100660.16;;;16.83;84.65
9335;BME280;4706;41.844;26.082;2023-04-22T06:51:12;100658.44;;;16.90;84.33
9335;BME280;4706;41.844;26.082;2023-04-22T06:53:38;100668.03;;;17.26;80.73
9335;BME280;4706;41.844;26.082;2023-04-22T06:56:04;100674.75;;;17.13;81.66
9335;BME280;4706;41.844;26.082;2023-04-22T06:58:30;100682.44;;;17.28;80.35
9335;BME280;4706;41.844;26.082;2023-04-22T07:00:55;100666.94;;;17.52;79.03
9335;BME280;4706;41.844;26.082;2023-04-22T07:03:21;100669.84;;;17.43;79.02
9335;BME280;4706;41.844;26.082;2023-04-22T07:05:46;100678.06;;;17.52;79.45
9335;BME280;4706;41.844;26.082;2023-04-22T07:08:13;100685.03;;;17.58;79.10
9335;BME280;4706;41.844;26.082;2023-04-22T07:10:38;100674.91;;;17.41;80.61
9335;BME280;4706;41.844;26.082;2023-04-22T07:13:04;100680.53;;;17.53;79.58
9335;BME280;4706;41.844;26.082;2023-04-22T07:15:29;100684.78;;;17.51;79.59
9335;BME280;4706;41.844;26.082;2023-04-22T07:17:55;100671.47;;;17.56;81.78
9335;BME280;4706;41.844;26.082;2023-04-22T07:20:21;100677.38;;;17.55;81.88
9335;BME280;4706;41.844;26.082;2023-04-22T07:22:46;100675.78;;;17.66;79.60
9335;BME280;4706;41.844;26.082;2023-04-22T07:25:12;100688.19;;;17.68;78.70
9335;BME280;4706;41.844;26.082;2023-04-22T07:27:38;100685.63;;;17.63;79.55
9335;BME280;4706;41.844;26.082;2023-04-22T07:30:05;100680.13;;;17.76;78.65
9335;BME280;4706;41.844;26.082;2023-04-22T07:32:31;100689.00;;;17.69;78.81
9335;BME280;4706;41.844;26.082;2023-04-22T07:34:57;100684.97;;;17.79;79.66
9335;BME280;4706;41.844;26.082;2023-04-22T07:37:22;100681.72;;;18.01;79.55
9335;BME280;4706;41.844;26.082;2023-04-22T07:39:48;100691.53;;;18.35;78.48
9335;BME280;4706;41.844;26.082;2023-04-22T07:42:13;100687.91;;;18.72;75.00
9335;BME280;4706;41.844;26.082;2023-04-22T07:44:39;100699.69;;;18.93;74.25
9335;BME280;4706;41.844;26.082;2023-04-22T07:47:04;100686.88;;;19.04;75.53
9335;BME280;4706;41.844;26.082;2023-04-22T07:49:32;100680.03;;;19.17;75.53
9335;BME280;4706;41.844;26.082;2023-04-22T07:51:57;100687.47;;;19.41;74.25
9335;BME280;4706;41.844;26.082;2023-04-22T07:54:22;100695.47;;;19.43;71.86
9335;BME280;4706;41.844;26.082;2023-04-22T07:56:48;100680.19;;;19.37;70.63
9335;BME280;4706;41.844;26.082;2023-04-22T07:59:13;100694.47;;;19.35;70.39
9335;BME280;4706;41.844;26.082;2023-04-22T08:01:39;100691.88;;;19.42;72.73
9335;BME280;4706;41.844;26.082;2023-04-22T08:04:04;100682.81;;;19.61;70.64
9335;BME280;4706;41.844;26.082;2023-04-22T08:06:30;100678.47;;;20.11;70.89
9335;BME280;4706;41.844;26.082;2023-04-22T08:08:56;100680.63;;;20.18;66.06
9335;BME280;4706;41.844;26.082;2023-04-22T08:11:21;100687.81;;;20.35;67.41
9335;BME280;4706;41.844;26.082;2023-04-22T08:13:47;100689.88;;;20.73;65.86
9335;BME280;4706;41.844;26.082;2023-04-22T08:16:12;100677.50;;;20.55;65.60
9335;BME280;4706;41.844;26.082;2023-04-22T08:18:38;100686.78;;;20.78;65.01
9335;BME280;4706;41.844;26.082;2023-04-22T08:21:03;100687.38;;;21.07;66.15
9335;BME280;4706;41.844;26.082;2023-04-22T08:23:29;100685.53;;;21.34;62.05
9335;BME280;4706;41.844;26.082;2023-04-22T08:25:54;100691.19;;;21.18;62.28
9335;BME280;4706;41.844;26.082;2023-04-22T08:28:20;100690.59;;;21.09;63.15
9335;BME280;4706;41.844;26.082;2023-04-22T08:30:46;100682.81;;;21.18;65.15
9335;BME280;4706;41.844;26.082;2023-04-22T08:33:11;100689.41;;;21.49;62.78
9335;BME280;4706;41.844;26.082;2023-04-22T08:35:37;100680.69;;;21.77;59.24
9335;BME280;4706;41.844;26.082;2023-04-22T08:38:02;100683.03;;;21.98;56.75
9335;BME280;4706;41.844;26.082;2023-04-22T08:40:28;100675.75;;;22.16;56.72
9335;BME280;4706;41.844;26.082;2023-04-22T08:42:54;100673.31;;;22.15;57.47
9335;BME280;4706;41.844;26.082;2023-04-22T08:45:20;100668.91;;;22.14;57.67
9335;BME280;4706;41.844;26.082;2023-04-22T08:47:47;100671.59;;;22.10;55.89
9335;BME280;4706;41.844;26.082;2023-04-22T08:50:13;100673.16;;;22.30;55.13
9335;BME280;4706;41.844;26.082;2023-04-22T08:52:38;100673.22;;;22.38;54.63
9335;BME280;4706;41.844;26.082;2023-04-22T08:55:06;100669.31;;;22.42;52.98
9335;BME280;4706;41.844;26.082;2023-04-22T08:57:32;100652.25;;;22.54;53.02
9335;BME280;4706;41.844;26.082;2023-04-22T09:00:00;100660.31;;;22.29;53.76
9335;BME280;4706;41.844;26.082;2023-04-22T09:02:27;100662.38;;;22.63;52.98
9335;BME280;4706;41.844;26.082;2023-04-22T09:04:56;100656.91;;;22.73;51.80
9335;BME280;4706;41.844;26.082;2023-04-22T09:07:24;100653.16;;;22.92;51.04
9335;BME280;4706;41.844;26.082;2023-04-22T09:09:52;100660.81;;;22.95;50.98
9335;BME280;4706;41.844;26.082;2023-04-22T09:12:18;100651.72;;;23.09;49.99
9335;BME280;4706;41.844;26.082;2023-04-22T09:14:44;100653.97;;;22.93;50.18
9335;BME280;4706;41.844;26.082;2023-04-22T09:17:10;100653.00;;;22.21;52.12
9335;BME280;4706;41.844;26.082;2023-04-22T09:19:35;100654.34;;;22.31;51.38
9335;BME280;4706;41.844;26.082;2023-04-22T09:22:01;100649.28;;;22.14;53.28
9335;BME280;4706;41.844;26.082;2023-04-22T09:24:27;100645.13;;;21.81;52.84
9335;BME280;4706;41.844;26.082;2023-04-22T09:26:57;100637.47;;;22.01;53.90
9335;BME280;4706;41.844;26.082;2023-04-22T09:29:29;100644.09;;;21.89;53.70
9335;BME280;4706;41.844;26.082;2023-04-22T09:31:56;100639.19;;;22.09;50.63
9335;BME280;4706;41.844;26.082;2023-04-22T09:34:21;100633.44;;;22.25;49.20
9335;BME280;4706;41.844;26.082;2023-04-22T09:36:49;100632.19;;;22.52;50.17
9335;BME280;4706;41.844;26.082;2023-04-22T09:39:16;100625.34;;;22.80;49.20
9335;BME280;4706;41.844;26.082;2023-04-22T09:41:41;100630.63;;;22.55;49.64
9335;BME280;4706;41.844;26.082;2023-04-22T09:44:10;100622.75;;;22.64;49.05
9335;BME280;4706;41.844;26.082;2023-04-22T09:46:36;100616.94;;;22.80;50.48
9335;BME280;4706;41.844;26.082;2023-04-22T09:49:01;100607.88;;;22.60;51.09
9335;BME280;4706;41.844;26.082;2023-04-22T09:51:28;100612.38;;;22.35;51.16
9335;BME280;4706;41.844;26.082;2023-04-22T09:54:03;100602.81;;;22.73;49.29
9335;BME280;4706;41.844;26.082;2023-04-22T09:56:40;100601.72;;;22.81;47.38
9335;BME280;4706;41.844;26.082;2023-04-22T09:59:06;100603.63;;;23.07;45.88
9335;BME280;4706;41.844;26.082;2023-04-22T10:01:40;100606.53;;;22.81;47.64
9335;BME280;4706;41.844;26.082;2023-04-22T10:04:06;100599.97;;;23.03;46.93
9335;BME280;4706;41.844;26.082;2023-04-22T10:06:34;100592.41;;;23.51;46.77
9335;BME280;4706;41.844;26.082;2023-04-22T10:09:00;100595.78;;;23.27;47.90
9335;BME280;4706;41.844;26.082;2023-04-22T10:11:26;100602.47;;;23.56;47.66
9335;BME280;4706;41.844;26.082;2023-04-22T10:13:52;100587.75;;;23.66;47.51
9335;BME280;4706;41.844;26.082;2023-04-22T10:16:19;100581.78;;;23.75;49.07
9335;BME280;4706;41.844;26.082;2023-04-22T10:18:46;100587.19;;;23.54;48.37
9335;BME280;4706;41.844;26.082;2023-04-22T10:21:12;100574.72;;;23.47;50.00
9335;BME280;4706;41.844;26.082;2023-04-22T10:23:44;100576.47;;;23.63;48.78
9335;BME280;4706;41.844;26.082;2023-04-22T10:26:11;100566.22;;;23.92;48.33
9335;BME280;4706;41.844;26.082;2023-04-22T10:28:42;100567.72;;;23.71;47.56
9335;BME280;4706;41.844;26.082;2023-04-22T10:31:20;100567.72;;;23.71;47.60
9335;BME280;4706;41.844;26.082;2023-04-22T10:33:46;100550.66;;;23.50;47.83
9335;BME280;4706;41.844;26.082;2023-04-22T10:36:18;100548.06;;;23.71;46.38
9335;BME280;4706;41.844;26.082;2023-04-22T10:41:15;100530.22;;;23.01;47.36
9335;BME280;4706;41.844;26.082;2023-04-22T10:43:46;100539.56;;;23.16;48.98
9335;BME280;4706;41.844;26.082;2023-04-22T10:49:16;100544.97;;;22.91;46.96
9335;BME280;4706;41.844;26.082;2023-04-22T10:51:47;100553.31;;;22.88;47.96
9335;BME280;4706;41.844;26.082;2023-04-22T10:57:03;100565.81;;;22.60;42.46
9335;BME280;4706;41.844;26.082;2023-04-22T10:59:33;100565.31;;;22.51;41.95
9335;BME280;4706;41.844;26.082;2023-04-22T11:02:01;100569.91;;;22.06;43.63
9335;BME280;4706;41.844;26.082;2023-04-22T11:04:26;100577.06;;;21.50;45.90
9335;BME280;4706;41.844;26.082;2023-04-22T11:15:20;100583.84;;;21.26;46.24
9335;BME280;4706;41.844;26.082;2023-04-22T11:17:50;100576.22;;;21.46;49.02
9335;BME280;4706;41.844;26.082;2023-04-22T11:20:16;100588.44;;;21.61;56.59
9335;BME280;4706;41.844;26.082;2023-04-22T11:22:53;100591.09;;;21.77;58.25
9335;BME280;4706;41.844;26.082;2023-04-22T11:25:19;100580.38;;;21.82;61.87
9335;BME280;4706;41.844;26.082;2023-04-22T11:27:46;100589.59;;;21.83;61.10
9335;BME280;4706;41.844;26.082;2023-04-22T11:32:46;100587.91;;;21.78;66.27
9335;BME280;4706;41.844;26.082;2023-04-22T11:35:14;100582.84;;;21.88;61.56
9335;BME280;4706;41.844;26.082;2023-04-22T11:37:51;100566.09;;;21.65;57.27
9335;BME280;4706;41.844;26.082;2023-04-22T11:40:18;100578.06;;;21.62;53.43
9335;BME280;4706;41.844;26.082;2023-04-22T11:42:46;100578.97;;;21.00;54.67
9335;BME280;4706;41.844;26.082;2023-04-22T11:45:12;100560.56;;;20.76;52.04
9335;BME280;4706;41.844;26.082;2023-04-22T11:47:39;100565.31;;;20.95;53.71
9335;BME280;4706;41.844;26.082;2023-04-22T11:50:07;100554.94;;;20.96;51.37
9335;BME280;4706;41.844;26.082;2023-04-22T11:55:27;100536.91;;;21.39;55.41
9335;BME280;4706;41.844;26.082;2023-04-22T12:00:23;100537.84;;;21.24;53.45
9335;BME280;4706;41.844;26.082;2023-04-22T12:03:01;100537.72;;;21.40;52.46
9335;BME280;4706;41.844;26.082;2023-04-22T12:05:36;100536.22;;;21.72;60.30
9335;BME280;4706;41.844;26.082;2023-04-22T12:08:09;100522.72;;;21.78;56.83
9335;BME280;4706;41.844;26.082;2023-04-22T12:10:44;100516.91;;;22.20;57.91
9335;BME280;4706;41.844;26.082;2023-04-22T12:13:22;100515.66;;;22.51;57.68
9335;BME280;4706;41.844;26.082;2023-04-22T12:15:52;100521.50;;;22.73;50.18
9335;BME280;4706;41.844;26.082;2023-04-22T12:18:35;100520.44;;;22.85;48.29
9335;BME280;4706;41.844;26.082;2023-04-22T12:23:49;100523.56;;;23.20;50.59
9335;BME280;4706;41.844;26.082;2023-04-22T12:26:16;100519.63;;;23.25;43.38
9335;BME280;4706;41.844;26.082;2023-04-22T12:28:43;100523.91;;;22.74;41.75
9335;BME280;4706;41.844;26.082;2023-04-22T12:31:10;100516.34;;;22.78;42.37
9335;BME280;4706;41.844;26.082;2023-04-22T12:33:36;100513.47;;;22.71;38.21
9335;BME280;4706;41.844;26.082;2023-04-22T12:36:03;100517.22;;;22.49;37.93
9335;BME280;4706;41.844;26.082;2023-04-22T12:38:29;100499.63;;;22.15;39.40
9335;BME280;4706;41.844;26.082;2023-04-22T12:40:56;100509.56;;;22.42;39.97
9335;BME280;4706;41.844;26.082;2023-04-22T12:43:23;100507.88;;;22.34;41.04
9335;BME280;4706;41.844;26.082;2023-04-22T12:45:48;100504.38;;;22.44;40.72
9335;BME280;4706;41.844;26.082;2023-04-22T12:48:14;100499.22;;;22.46;40.97
9335;BME280;4706;41.844;26.082;2023-04-22T12:50:40;100494.63;;;22.31;40.19
9335;BME280;4706;41.844;26.082;2023-04-22T12:53:05;100499.34;;;22.23;41.77
9335;BME280;4706;41.844;26.082;2023-04-22T12:55:31;100494.94;;;22.26;43.30
9335;BME280;4706;41.844;26.082;2023-04-22T12:57:57;100496.34;;;22.09;43.62
9335;BME280;4706;41.844;26.082;2023-04-22T13:00:22;100487.53;;;21.80;43.52
9335;BME280;4706;41.844;26.082;2023-04-22T13:02:49;100483.66;;;21.89;42.63
9335;BME280;4706;41.844;26.082;2023-04-22T13:05:16;100490.53;;;21.95;42.88
9335;BME280;4706;41.844;26.082;2023-04-22T13:07:42;100483.28;;;21.90;42.89
9335;BME280;4706;41.844;26.082;2023-04-22T13:10:09;100492.72;;;21.78;42.24
9335;BME280;4706;41.844;26.082;2023-04-22T13:12:35;100492.25;;;22.03;42.25
9335;BME280;4706;41.844;26.082;2023-04-22T13:15:01;100495.56;;;22.12;42.27
9335;BME280;4706;41.844;26.082;2023-04-22T13:17:27;100493.75;;;22.23;44.17
9335;BME280;4706;41.844;26.082;2023-04-22T13:19:53;100501.53;;;22.41;40.51
9335;BME280;4706;41.844;26.082;2023-04-22T13:22:18;100497.03;;;22.33;40.24